Terminal Aerodrome Forecast
Issued by NWS

Home | Current Version | Previous Version | Graphics & Text | Print | Product List | Glossary On
Versions: 1 2 3 4 5 6 7 8 9 10 11 12 13 14 15 16 17
693
FTUS43 KMPX 151727
TAFAXN
TAF
KAXN 151727Z 1518/1618 14010KT P6SM BKN120 OVC250
     FM160300 12012KT P6SM VCSH OVC040
     FM160600 13010KT P6SM SHRA VCTS OVC015CB
     FM161200 14008KT 4SM SHRA BR OVC008=

USA.gov is the U.S. government's official web portal to all federal, state and local government web resources and services.